Terminal Aerodrome Forecast
Issued by NWS

Current Version | Previous Version | Text Only | Print | Product List | Glossary On
Versions: 1 2 3 4 5 6 7 8 9 10 11 12
000
FTUS42 KGSP 171737
TAFAND
TAF
KAND 171737Z 1718/1818 23005KT P6SM BKN090
     FM172100 23004KT P6SM VCSH BKN060
     FM180300 VRB03KT P6SM OVC025 PROB30 1803/1806 4SM -RA BR OVC025
     FM181300 VRB02KT P6SM BKN020
     FM181700 24004KT P6SM BKN015=

USA.gov is the U.S. government's official web portal to all federal, state and local government web resources and services.